Izumo Princess — SXMB — position and weather

sailwx.info

Track history (hours):
 
Tides and Currents Weather Stations Pressure Air Temp Water Temp Dewpoint Dewpoint Depression Visibility Wind Speed Wind Dir Waves Ship Positions

Izumo Princess

Last reported at 2014-Oct-16 01:33 UTC. Time now 2014-Oct-20 09:53 UTC.
Position N 36°14' E 022°12'.

Length 229 m; draft 13.8 m.

Type: Tanker. MMSI: 240611000.

Date/timePositionNaut miles runAvg speedWind from/ knotsBaromVisibWave heightAir tempDewpointWater temp
2014-Oct-16 01:33N 36°14' E 022°12'3511.6
2014-Oct-15 22:32N 35°53' E 022°47'3911.6
2014-Oct-15 19:13N 35°45' E 023°33'811.7
2014-Oct-15 18:33N 35°45' E 023°43'2511.4
2014-Oct-15 16:22N 35°41' E 024°13'1012.1
2014-Oct-15 15:33N 35°40' E 024°25'1212.2
2014-Oct-15 14:33N 35°38' E 024°40'1211.9
2014-Oct-15 13:33N 35°36' E 024°55'1111.5
2014-Oct-15 12:33N 35°34' E 025°08'1311.7
2014-Oct-15 11:29N 35°32' E 025°24'1511.7
2014-Oct-15 10:12N 35°30' E 025°42'  
2014-Oct-11 21:16N 35°42' E 032°57'25610.7
2014-Oct-10 21:22N 35°19' E 027°44'9510.5
2014-Oct-10 12:23N 35°30' E 025°48'911.2
2014-Oct-10 11:33N 35°31' E 025°37'1111.0
2014-Oct-10 10:33N 35°32' E 025°23'1111.2
2014-Oct-10 09:33N 35°34' E 025°10'1111.1
2014-Oct-10 08:33N 35°36' E 024°56'2311.0
2014-Oct-10 06:30N 35°40' E 024°29'  
Track history (hours):
 
Tides and Currents Weather Stations Pressure Air Temp Water Temp Dewpoint Dewpoint Depression Visibility Wind Speed Wind Dir Waves Ship Positions

Izumo Princess

Last reported at 2014-Oct-16 01:33 UTC. Time now 2014-Oct-20 09:53 UTC.
Position N 36°14' E 022°12'.

Length 229 m; draft 13.8 m.

Type: Tanker. MMSI: 240611000.

Date/timePositionNaut miles runAvg speedWind from/ knotsBaromVisibWave heightAir tempDewpointWater temp
2014-Oct-16 01:33N 36°14' E 022°12'3511.6
2014-Oct-15 22:32N 35°53' E 022°47'3911.6
2014-Oct-15 19:13N 35°45' E 023°33'811.7
2014-Oct-15 18:33N 35°45' E 023°43'2511.4
2014-Oct-15 16:22N 35°41' E 024°13'1012.1
2014-Oct-15 15:33N 35°40' E 024°25'1212.2
2014-Oct-15 14:33N 35°38' E 024°40'1211.9
2014-Oct-15 13:33N 35°36' E 024°55'1111.5
2014-Oct-15 12:33N 35°34' E 025°08'1311.7
2014-Oct-15 11:29N 35°32' E 025°24'1511.7
2014-Oct-15 10:12N 35°30' E 025°42'  
2014-Oct-11 21:16N 35°42' E 032°57'25610.7
2014-Oct-10 21:22N 35°19' E 027°44'9510.5
2014-Oct-10 12:23N 35°30' E 025°48'911.2
2014-Oct-10 11:33N 35°31' E 025°37'1111.0
2014-Oct-10 10:33N 35°32' E 025°23'1111.2
2014-Oct-10 09:33N 35°34' E 025°10'1111.1
2014-Oct-10 08:33N 35°36' E 024°56'2311.0
2014-Oct-10 06:30N 35°40' E 024°29'  

Dump ship's entire track history